Time;durP1;ratioP1;P1;durP2;ratioP2;P2;SDS_P1;SDS_P2;PMS_P1;PMS_P2;Temp;Humidity;BMP_temperature;BMP_pressure;BME280_temperature;BME280_humidity;BME280_pressure;Samples;Min_cycle;Max_cycle;Signal;HPM_P1;HPM_P2
2022/06/21 00:01:35;;;;;;;;;23.33;20.33;;;;;22.58;68.53;101082.72;5058851;28;47559;-74
2022/06/21 00:04:01;;;;;;;;;19.67;17.00;;;;;22.56;68.54;101081.03;5075811;28;69059;-73
2022/06/21 00:06:27;;;;;;;;;17.67;16.67;;;;;22.55;68.69;101090.94;5076928;28;45487;-74
2022/06/21 00:08:53;;;;;;;;;18.33;17.33;;;;;22.52;68.35;101082.94;5077232;28;45303;-74
2022/06/21 00:11:34;;;;;;;;;17.67;16.33;;;;;22.56;68.81;101073.84;5076058;28;70698;-74
2022/06/21 00:13:59;;;;;;;;;14.67;14.67;;;;;22.53;68.70;101067.69;5078028;28;45329;-74
2022/06/21 00:16:27;;;;;;;;;12.67;12.67;;;;;22.49;68.36;101061.53;5079144;28;45426;-74
2022/06/21 00:18:53;;;;;;;;;18.00;13.00;;;;;22.45;68.31;101052.69;5059646;28;45422;-74
2022/06/21 00:21:34;;;;;;;;;12.33;11.33;;;;;22.43;68.67;101046.50;5059540;28;55388;-74
2022/06/21 00:23:59;;;;;;;;;12.67;9.00;;;;;22.40;68.47;101045.72;5077151;28;45330;-74
2022/06/21 00:26:26;;;;;;;;;14.67;10.67;;;;;22.38;68.69;101037.69;5076771;28;61936;-73
2022/06/21 00:28:52;;;;;;;;;12.33;9.33;;;;;22.34;68.37;101043.22;5077008;28;45568;-74
2022/06/21 00:31:30;;;;;;;;;13.00;11.00;;;;;22.31;68.37;101048.69;5076991;28;46107;-74
2022/06/21 00:33:57;;;;;;;;;14.33;9.33;;;;;22.28;68.79;101051.50;5076308;28;45483;-73
2022/06/21 00:36:34;;;;;;;;;10.33;10.00;;;;;22.26;68.66;101042.59;5077061;28;45246;-74
2022/06/21 00:39:01;;;;;;;;;11.00;10.00;;;;;22.25;68.83;101049.78;5074422;28;45236;-74
2022/06/21 00:41:47;;;;;;;;;10.00;10.00;;;;;22.22;68.65;101049.91;5076637;28;46386;-74
2022/06/21 00:44:18;;;;;;;;;9.33;8.00;;;;;22.20;68.90;101060.69;5058758;28;45940;-74
2022/06/21 00:46:51;;;;;;;;;11.00;9.67;;;;;22.18;68.66;101061.69;5058494;28;45443;-73
2022/06/21 00:49:21;;;;;;;;;8.67;8.67;;;;;22.15;68.92;101048.34;5058594;28;45307;-73
2022/06/21 00:51:47;;;;;;;;;8.67;8.67;;;;;22.12;69.04;101040.41;5076708;28;46343;-74
2022/06/21 00:54:18;;;;;;;;;12.33;7.00;;;;;22.08;69.26;101038.69;5076649;28;45277;-73
2022/06/21 00:56:55;;;;;;;;;8.00;8.00;;;;;22.06;69.51;101044.13;5058255;28;45325;-74
2022/06/21 00:59:28;;;;;;;;;11.33;8.00;;;;;22.04;69.03;101032.53;5076691;28;45458;-73
2022/06/21 01:01:56;;;;;;;;;10.00;8.00;;;;;22.01;69.90;101046.09;5075898;28;47291;-74
2022/06/21 01:04:35;;;;;;;;;11.67;8.67;;;;;22.00;69.42;101057.78;5076081;28;45782;-74
2022/06/21 01:07:02;;;;;;;;;8.00;7.67;;;;;21.96;69.76;101065.06;5075698;28;45443;-74
2022/06/21 01:09:35;;;;;;;;;7.33;7.33;;;;;21.98;69.75;101068.56;5075687;28;45381;-73
2022/06/21 01:12:06;;;;;;;;;8.00;6.00;;;;;21.96;69.81;101062.38;5058423;28;46542;-73
2022/06/21 01:14:36;;;;;;;;;9.33;7.00;;;;;21.96;69.85;101065.06;5076197;28;45592;-73
2022/06/21 01:17:03;;;;;;;;;8.67;8.67;;;;;21.96;70.13;101067.75;5076551;28;47283;-73
2022/06/21 01:19:50;;;;;;;;;10.00;8.33;;;;;21.98;70.05;101068.56;5076689;28;45739;-73
2022/06/21 01:22:28;;;;;;;;;10.00;8.33;;;;;21.98;70.06;101056.94;5058508;28;46536;-74
2022/06/21 01:25:08;;;;;;;;;7.00;7.00;;;;;21.96;70.50;101062.38;5074959;28;45421;-74
2022/06/21 01:27:33;;;;;;;;;8.33;7.00;;;;;21.94;70.40;101056.19;5076273;28;45246;-74
2022/06/21 01:30:00;;;;;;;;;9.00;7.33;;;;;21.94;70.25;101050.81;5055304;28;56565;-74
2022/06/21 01:32:26;;;;;;;;;9.67;9.00;;;;;21.94;69.75;101057.97;5054870;28;47641;-74
2022/06/21 01:34:57;;;;;;;;;7.00;7.00;;;;;21.94;70.54;101056.19;5075304;28;51368;-74
2022/06/21 01:37:29;;;;;;;;;8.00;8.00;;;;;21.93;70.43;101054.41;5057564;28;59129;-74
2022/06/21 01:40:09;;;;;;;;;12.00;7.00;;;;;21.93;69.93;101064.28;5058015;28;45547;-73
2022/06/21 01:42:39;;;;;;;;;7.67;7.67;;;;;21.88;70.12;101055.47;5057255;28;47480;-74
2022/06/21 01:45:10;;;;;;;;;7.67;6.67;;;;;21.88;69.97;101056.34;5057342;28;45339;-74
2022/06/21 01:47:43;;;;;;;;;10.00;7.00;;;;;21.88;70.55;101072.47;5058034;28;45455;-73
2022/06/21 01:50:10;;;;;;;;;7.67;6.67;;;;;21.88;70.13;101079.66;5075749;28;45170;-74
2022/06/21 01:52:40;;;;;;;;;7.67;7.00;;;;;21.88;70.67;101090.44;5058120;28;46875;-73
2022/06/21 01:55:15;;;;;;;;;8.67;7.67;;;;;21.88;70.84;101094.00;5057411;28;45518;-73
2022/06/21 01:57:41;;;;;;;;;8.00;8.00;;;;;21.87;70.41;101105.69;5057857;28;45404;-73
2022/06/21 02:00:07;;;;;;;;;8.00;7.00;;;;;21.88;70.44;101120.88;5075025;28;61783;-74
2022/06/21 02:02:43;;;;;;;;;7.33;6.00;;;;;21.87;71.12;101121.81;5077886;28;46740;-73
2022/06/21 02:05:16;;;;;;;;;10.00;7.00;;;;;21.90;70.67;101147.75;5061000;28;45445;-74
2022/06/21 02:07:49;;;;;;;;;8.00;7.00;;;;;21.89;71.13;101157.63;5061533;28;45453;-73
2022/06/21 02:10:23;;;;;;;;;6.00;6.00;;;;;21.90;70.67;101156.69;5060779;28;45474;-73
2022/06/21 02:13:10;;;;;;;;;9.33;8.33;;;;;21.91;70.85;101149.50;5078828;28;46426;-73
2022/06/21 02:15:41;;;;;;;;;7.33;7.00;;;;;21.88;71.41;101144.19;5073173;28;45303;-74
2022/06/21 02:18:10;;;;;;;;;8.00;8.00;;;;;21.90;71.29;101154.00;5061572;28;45249;-73
2022/06/21 02:20:42;;;;;;;;;10.33;8.00;;;;;21.89;71.04;101148.63;5078960;28;45429;-73
2022/06/21 02:23:11;;;;;;;;;12.00;8.00;;;;;21.88;71.25;101134.31;5079311;28;46815;-73
2022/06/21 02:25:37;;;;;;;;;9.67;7.33;;;;;21.88;71.10;101122.69;5060534;28;45846;-73
2022/06/21 02:28:08;;;;;;;;;6.00;6.00;;;;;21.86;71.79;101113.81;5060732;28;45609;-74
2022/06/21 02:30:36;;;;;;;;;10.00;8.00;;;;;21.87;71.85;101110.19;5055193;28;45506;-73
2022/06/21 02:33:03;;;;;;;;;7.33;7.33;;;;;21.86;71.85;101100.34;5078497;28;47396;-73
2022/06/21 02:35:46;;;;;;;;;9.67;7.00;;;;;21.84;72.09;101081.59;5060594;28;45328;-73
2022/06/21 02:38:30;;;;;;;;;11.33;8.00;;;;;21.85;71.53;101072.59;5061096;28;45565;-73
2022/06/21 02:41:06;;;;;;;;;6.33;6.33;;;;;21.84;71.65;101053.81;5060821;28;45822;-73
2022/06/21 02:43:44;;;;;;;;;9.67;7.00;;;;;21.83;72.02;101049.38;5078876;28;46716;-73
2022/06/21 02:46:31;;;;;;;;;10.33;8.00;;;;;21.81;71.66;101052.09;5060590;28;45607;-73
2022/06/21 02:49:02;;;;;;;;;8.33;7.33;;;;;21.79;71.69;101045.03;5060540;28;45515;-74
2022/06/21 02:51:39;;;;;;;;;7.00;7.00;;;;;21.77;71.79;101042.38;5061176;28;45687;-74
2022/06/21 02:54:07;;;;;;;;;9.67;8.00;;;;;21.76;71.50;101039.75;5077691;28;47614;-73
2022/06/21 02:56:40;;;;;;;;;9.00;7.33;;;;;21.74;71.53;101039.81;5055469;28;45440;-73
2022/06/21 02:59:05;;;;;;;;;6.00;6.00;;;;;21.74;71.61;101044.31;5078498;28;45232;-73
2022/06/21 03:01:42;;;;;;;;;6.67;6.67;;;;;21.72;72.20;101036.25;5077742;28;58443;-73
2022/06/21 03:04:34;;;;;;;;;8.00;8.00;;;;;21.71;71.74;101035.38;5059507;28;46311;-74
2022/06/21 03:06:59;;;;;;;;;10.00;9.00;;;;;21.70;72.59;101036.31;5076098;28;45379;-73
2022/06/21 03:09:25;;;;;;;;;7.67;6.00;;;;;21.70;72.64;101036.31;5058714;28;45360;-73
2022/06/21 03:11:59;;;;;;;;;7.67;7.67;;;;;21.71;72.31;101029.13;5078454;28;45217;-73
2022/06/21 03:14:27;;;;;;;;;8.00;8.00;;;;;21.71;72.15;101023.75;5076724;28;46657;-73
2022/06/21 03:16:54;;;;;;;;;7.00;6.00;;;;;21.69;72.21;101006.81;5078356;28;45537;-73
2022/06/21 03:19:24;;;;;;;;;8.00;6.67;;;;;21.67;72.37;100993.41;5077523;28;45459;-73
2022/06/21 03:21:50;;;;;;;;;8.00;6.33;;;;;21.66;72.24;100993.47;5078477;28;45553;-73
2022/06/21 03:24:20;;;;;;;;;6.67;6.67;;;;;21.64;72.33;100985.47;5077959;28;46215;-74
2022/06/21 03:26:55;;;;;;;;;8.00;7.00;;;;;21.63;72.07;100974.78;5060342;28;45593;-73
2022/06/21 03:29:23;;;;;;;;;10.67;8.67;;;;;21.60;72.26;100977.53;5078004;28;45299;-74
2022/06/21 03:31:49;;;;;;;;;11.67;7.00;;;;;21.59;72.71;100959.66;5074021;28;45253;-73
2022/06/21 03:34:20;;;;;;;;;9.00;7.00;;;;;21.57;72.72;100956.13;5078149;28;46267;-73
2022/06/21 03:36:46;;;;;;;;;11.00;7.00;;;;;21.54;73.05;100945.50;5078276;28;45323;-73
2022/06/21 03:39:16;;;;;;;;;9.00;7.33;;;;;21.52;72.87;100929.44;5077311;28;62981;-73
2022/06/21 03:41:44;;;;;;;;;7.33;7.33;;;;;21.52;72.74;100920.47;5077691;28;45305;-74
2022/06/21 03:44:26;;;;;;;;;10.00;7.33;;;;;21.52;72.88;100917.78;5077618;28;47539;-72
2022/06/21 03:47:14;;;;;;;;;6.33;6.33;;;;;21.51;73.13;100913.34;5076994;28;45536;-73
2022/06/21 03:49:45;;;;;;;;;10.67;9.00;;;;;21.50;73.32;100906.22;5077438;28;45367;-74
2022/06/21 03:55:13;;;;;;;;;8.67;8.67;;;;;21.47;73.49;100896.47;5078407;28;45776;-73
2022/06/21 03:57:48;;;;;;;;;11.00;8.00;;;;;21.43;74.12;100884.94;5061041;28;45586;-73
2022/06/21 04:00:15;;;;;;;;;7.33;7.33;;;;;21.43;73.79;100882.25;5078801;28;45472;-73
2022/06/21 04:02:50;;;;;;;;;10.33;8.00;;;;;21.38;74.07;100875.28;5076341;28;58680;-73
2022/06/21 04:05:51;;;;;;;;;8.67;7.00;;;;;21.37;74.17;100877.09;5074993;28;47739;-73
2022/06/21 04:08:46;;;;;;;;;8.33;7.33;;;;;21.34;74.63;100868.25;5073091;28;45504;-74
2022/06/21 04:11:20;;;;;;;;;8.33;8.00;;;;;21.32;75.89;100870.97;5069694;28;45455;-73
2022/06/21 04:13:54;;;;;;;;;10.67;8.00;;;;;21.29;77.09;100857.59;5077046;28;45300;-73
2022/06/21 04:16:53;;;;;;;;;9.00;8.00;;;;;21.29;78.28;100862.09;5070052;28;46745;-73
2022/06/21 04:19:25;;;;;;;;;9.00;9.00;;;;;21.25;79.38;100869.38;5059263;28;45374;-73
2022/06/21 04:22:03;;;;;;;;;14.67;12.33;;;;;21.21;80.85;100870.44;5059671;28;45330;-73
2022/06/21 04:24:54;;;;;;;;;10.67;10.67;;;;;21.18;81.95;100855.28;5076496;28;45380;-73
2022/06/21 04:27:39;;;;;;;;;14.67;9.67;;;;;21.14;82.81;100867.03;5057643;28;47435;-74
2022/06/21 04:30:17;;;;;;;;;12.33;10.67;;;;;21.10;83.32;100843.91;5074450;27;45498;-75
2022/06/21 04:32:48;;;;;;;;;12.33;8.00;;;;;21.07;84.39;100851.19;5056242;28;45577;-75
2022/06/21 04:35:19;;;;;;;;;12.67;9.67;;;;;21.04;85.09;100851.25;5058123;28;45391;-73
2022/06/21 04:38:01;;;;;;;;;12.00;8.00;;;;;20.99;86.51;100839.81;5042131;28;48518;-73
2022/06/21 04:40:39;;;;;;;;;13.67;10.33;;;;;20.95;87.58;100848.91;5058579;28;45518;-73
2022/06/21 04:43:23;;;;;;;;;12.00;9.67;;;;;20.92;88.53;100852.53;5076551;28;45314;-74
2022/06/21 04:46:01;;;;;;;;;16.33;11.33;;;;;20.87;88.35;100843.75;5058408;28;45380;-74
2022/06/21 04:48:47;;;;;;;;;13.33;12.00;;;;;20.83;88.88;100834.06;5058541;28;46515;-74
2022/06/21 04:51:29;;;;;;;;;13.67;10.67;;;;;20.77;89.29;100840.47;5076791;28;45298;-74
2022/06/21 04:53:59;;;;;;;;;13.67;13.33;;;;;20.74;89.79;100839.72;5075330;28;45485;-74
2022/06/21 04:56:37;;;;;;;;;13.00;13.00;;;;;20.69;89.99;100836.28;5064465;28;45565;-74
2022/06/21 04:59:09;;;;;;;;;15.67;13.00;;;;;20.63;90.75;100832.88;5073618;28;47662;-74
2022/06/21 05:01:35;;;;;;;;;16.00;12.33;;;;;20.61;90.71;100828.44;5074315;28;46640;-74
2022/06/21 05:04:09;;;;;;;;;13.00;12.33;;;;;20.57;90.95;100827.69;5075165;28;45454;-74
2022/06/21 05:06:35;;;;;;;;;12.00;12.00;;;;;20.56;91.44;100833.06;5073675;28;45555;-74
2022/06/21 05:09:01;;;;;;;;;16.00;10.67;;;;;20.53;91.86;100831.38;5075062;28;71867;-74
2022/06/21 05:11:27;;;;;;;;;15.33;12.67;;;;;20.51;91.84;100838.59;5075037;28;67104;-74
2022/06/21 05:13:55;;;;;;;;;13.00;11.33;;;;;20.50;91.74;100846.69;5075213;28;57749;-74
2022/06/21 05:16:30;;;;;;;;;11.67;11.33;;;;;20.50;92.02;100857.41;5058380;28;45461;-74
2022/06/21 05:19:09;;;;;;;;;13.67;12.33;;;;;20.49;92.53;100871.75;5076075;28;46705;-72
2022/06/21 05:21:56;;;;;;;;;15.00;14.00;;;;;20.49;91.68;100879.78;5053223;27;45584;-74
2022/06/21 05:24:26;;;;;;;;;12.33;9.67;;;;;20.51;91.63;100894.06;5075196;28;45268;-75
2022/06/21 05:27:15;;;;;;;;;12.00;10.33;;;;;20.51;92.65;100894.06;5075359;28;60127;-74
2022/06/21 05:29:53;;;;;;;;;13.33;12.00;;;;;20.53;93.08;100889.53;5056386;28;47738;-74
2022/06/21 05:32:22;;;;;;;;;12.67;11.33;;;;;20.55;93.20;100880.50;5056347;28;45588;-74
2022/06/21 05:34:52;;;;;;;;;14.00;11.67;;;;;20.58;92.75;100884.91;5056703;28;45573;-74
2022/06/21 05:37:34;;;;;;;;;14.00;12.33;;;;;20.60;92.90;100891.09;5057391;28;45641;-73
2022/06/21 05:40:44;;;;;;;;;11.33;11.33;;;;;20.62;92.75;100891.94;5070924;28;47858;-74
2022/06/21 05:43:34;;;;;;;;;11.33;10.00;;;;;20.66;93.49;100897.16;4977441;28;45499;-73
2022/06/21 05:52:46;;;;;;;;;16.00;12.67;;;;;20.50;93.24;100897.66;5063200;27;45612;-72
2022/06/21 05:55:15;;;;;;;;;11.67;11.00;;;;;20.46;93.51;100895.97;5056417;28;45923;-72
2022/06/21 05:57:45;;;;;;;;;14.67;12.33;;;;;20.43;93.65;100888.88;5072309;28;45661;-72
2022/06/21 06:00:20;;;;;;;;;15.33;13.00;;;;;20.41;93.71;100880.00;5039514;28;45476;-72
2022/06/21 06:05:23;;;;;;;;;15.00;13.67;;;;;20.29;95.15;100867.78;5076511;27;45488;-72
2022/06/21 06:07:53;;;;;;;;;12.67;12.67;;;;;20.26;95.36;100873.25;5058001;28;45368;-72
2022/06/21 06:10:20;;;;;;;;;15.33;12.67;;;;;20.26;95.80;100885.78;5054209;27;45551;-72
2022/06/21 06:12:50;;;;;;;;;13.33;12.33;;;;;20.24;95.66;100883.16;5056408;27;46646;-72
2022/06/21 06:15:34;;;;;;;;;15.67;14.00;;;;;20.23;95.77;100878.69;5058165;28;45322;-72
2022/06/21 06:18:02;;;;;;;;;15.00;14.33;;;;;20.21;96.58;100885.03;5070429;27;45478;-71
2022/06/21 06:20:29;;;;;;;;;11.67;11.33;;;;;20.24;96.31;100869.75;5072836;28;45590;-72
2022/06/21 06:22:59;;;;;;;;;13.33;12.00;;;;;20.26;96.39;100854.50;5054472;28;47351;-72
2022/06/21 06:25:34;;;;;;;;;13.00;12.00;;;;;20.29;96.53;100849.03;5055840;28;45503;-72
2022/06/21 06:28:06;;;;;;;;;15.33;14.00;;;;;20.32;95.73;100846.28;5041627;28;45493;-72
2022/06/21 06:30:48;;;;;;;;;13.67;11.33;;;;;20.35;96.41;100842.63;5057255;27;45326;-72
2022/06/21 06:33:22;;;;;;;;;17.33;14.67;;;;;20.34;95.60;100844.41;5074973;28;46977;-72
2022/06/21 06:35:49;;;;;;;;;16.00;13.33;;;;;20.37;95.95;100855.06;5055313;28;45416;-72
2022/06/21 06:38:16;;;;;;;;;12.00;12.00;;;;;20.36;96.29;100861.34;5075494;28;45510;-72
2022/06/21 06:40:54;;;;;;;;;13.00;13.00;;;;;20.33;96.75;100869.47;5072326;28;46356;-72
2022/06/21 06:43:36;;;;;;;;;16.00;13.67;;;;;20.32;96.70;100880.25;5056049;28;47419;-72
2022/06/21 06:46:02;;;;;;;;;16.00;14.33;;;;;20.27;96.29;100880.38;5056591;28;45420;-72
2022/06/21 06:48:33;;;;;;;;;14.67;12.33;;;;;20.25;95.63;100889.41;5050129;28;60274;-72
2022/06/21 06:51:23;;;;;;;;;17.67;13.33;;;;;20.25;95.64;100895.66;5059077;28;45643;-72
2022/06/21 06:53:51;;;;;;;;;17.67;13.67;;;;;20.30;95.82;100900.88;5077593;28;47705;-72
2022/06/21 06:56:24;;;;;;;;;14.00;12.67;;;;;20.35;96.21;100897.16;5077680;28;45541;-72
2022/06/21 06:58:53;;;;;;;;;13.33;13.00;;;;;20.39;96.75;100896.13;5058979;28;45494;-72
2022/06/21 07:01:27;;;;;;;;;14.67;12.33;;;;;20.47;96.42;100903.13;5075336;28;45501;-72
2022/06/21 07:04:03;;;;;;;;;13.67;12.67;;;;;20.53;95.60;100903.81;5054154;27;47521;-72
2022/06/21 07:06:31;;;;;;;;;15.00;13.00;;;;;20.57;95.57;100893.88;5075073;28;45866;-72
2022/06/21 07:09:24;;;;;;;;;18.33;13.67;;;;;20.59;96.50;100897.38;5077429;28;46006;-72
2022/06/21 07:12:03;;;;;;;;;11.00;11.00;;;;;20.62;96.31;100894.63;5074230;27;45637;-72
2022/06/21 07:14:29;;;;;;;;;14.33;13.67;;;;;20.64;95.81;100909.75;5059942;28;47785;-72
2022/06/21 07:17:17;;;;;;;;;17.33;14.33;;;;;20.66;95.46;100912.38;5066528;27;45468;-72
2022/06/21 07:19:43;;;;;;;;;14.00;13.33;;;;;20.71;95.58;100925.66;5059883;28;45459;-72
2022/06/21 07:22:16;;;;;;;;;13.67;13.67;;;;;20.74;96.36;100918.41;5059636;28;47091;-72
2022/06/21 07:24:46;;;;;;;;;17.33;14.67;;;;;20.84;95.92;100927.94;5078079;28;46532;-72
2022/06/21 07:27:14;;;;;;;;;17.67;16.33;;;;;20.92;95.77;100931.25;5078273;28;45363;-72
2022/06/21 07:29:51;;;;;;;;;21.00;17.00;;;;;21.03;96.01;100932.75;5059972;28;45345;-72
2022/06/21 07:32:22;;;;;;;;;20.00;17.00;;;;;21.10;95.87;100926.28;5071200;27;45237;-72
2022/06/21 07:34:51;;;;;;;;;16.00;14.33;;;;;21.18;95.61;100930.47;5076931;27;47597;-72
2022/06/21 07:37:18;;;;;;;;;16.00;15.33;;;;;21.27;95.38;100925.75;5059213;28;45596;-72
2022/06/21 07:39:43;;;;;;;;;18.00;14.33;;;;;21.34;94.81;100925.53;5077798;28;46257;-72
2022/06/21 07:42:14;;;;;;;;;15.33;15.33;;;;;21.39;94.20;100926.25;5078381;28;45520;-72
2022/06/21 07:44:44;;;;;;;;;18.00;15.00;;;;;21.43;93.81;100914.50;5076731;27;45513;-72
2022/06/21 07:47:22;;;;;;;;;14.67;11.67;;;;;21.48;94.24;100913.47;5060146;28;45498;-72
2022/06/21 07:49:55;;;;;;;;;13.67;13.33;;;;;21.53;93.90;100914.19;5059564;28;45435;-72
2022/06/21 07:52:30;;;;;;;;;14.00;12.00;;;;;21.64;94.33;100923.66;5060025;28;45578;-72
2022/06/21 07:54:59;;;;;;;;;16.67;15.33;;;;;21.81;94.90;100936.53;5059937;28;46417;-72
2022/06/21 07:57:46;;;;;;;;;14.33;12.33;;;;;22.05;93.73;100937.50;5077674;27;45244;-72
2022/06/21 08:00:18;;;;;;;;;16.33;16.33;;;;;22.27;93.17;100934.09;5058956;28;45329;-72
2022/06/21 08:08:34;;;;;;;;;15.00;15.00;;;;;22.86;90.19;100928.31;5061827;28;45611;-72
2022/06/21 08:11:13;;;;;;;;;16.33;15.00;;;;;22.94;90.08;100927.09;5077885;28;45248;-72
2022/06/21 08:13:40;;;;;;;;;13.67;13.00;;;;;22.94;89.33;100919.00;5076872;27;45525;-72
2022/06/21 08:16:13;;;;;;;;;13.33;12.00;;;;;22.87;89.70;100914.78;5077933;28;46590;-72
2022/06/21 08:18:57;;;;;;;;;15.67;11.00;;;;;22.80;90.03;100924.03;5077297;28;45329;-72
2022/06/21 08:21:33;;;;;;;;;13.67;13.00;;;;;22.85;90.59;100927.44;5077255;28;45401;-72
2022/06/21 08:24:21;;;;;;;;;14.33;11.67;;;;;22.97;90.29;100932.38;5059621;28;45525;-72
2022/06/21 08:26:53;;;;;;;;;20.67;13.00;;;;;23.08;89.26;100931.94;5077604;27;47256;-72
2022/06/21 08:29:48;;;;;;;;;12.00;12.00;;;;;23.24;88.31;100940.31;5059460;28;45478;-72
2022/06/21 08:32:47;;;;;;;;;14.67;14.33;;;;;23.29;87.06;100943.69;5076002;28;45599;-72
2022/06/21 08:35:33;;;;;;;;;17.33;17.33;;;;;23.23;86.25;100931.34;5061257;28;45580;-72
2022/06/21 08:38:03;;;;;;;;;16.67;15.00;;;;;23.27;86.69;100940.16;5076936;28;46511;-72
2022/06/21 08:41:06;;;;;;;;;19.67;16.33;;;;;23.38;86.31;100946.00;5076373;28;45532;-72
2022/06/21 08:43:59;;;;;;;;;17.33;15.00;;;;;23.57;86.63;100945.25;5076617;28;45216;-72
2022/06/21 08:47:13;;;;;;;;;15.67;12.67;;;;;23.76;86.03;100935.53;5058794;28;45672;-72
2022/06/21 08:49:56;;;;;;;;;19.33;16.33;;;;;23.96;86.19;100932.81;5038856;28;47146;-72
2022/06/21 08:52:49;;;;;;;;;18.33;17.00;;;;;24.05;85.77;100934.25;5074146;28;45284;-72
2022/06/21 08:55:17;;;;;;;;;18.33;15.33;;;;;24.14;85.61;100930.28;5077025;28;45514;-72
2022/06/21 08:57:58;;;;;;;;;16.33;12.67;;;;;24.17;85.24;100922.06;5058257;28;45631;-72
2022/06/21 09:00:27;;;;;;;;;16.67;16.00;;;;;24.21;85.30;100926.38;5076683;28;46706;-72
2022/06/21 09:03:14;;;;;;;;;16.00;16.00;;;;;24.25;85.21;100926.19;5053865;28;45555;-72
2022/06/21 09:06:01;;;;;;;;;16.00;15.00;;;;;24.34;85.04;100910.50;5074523;27;45532;-72
2022/06/21 09:09:00;;;;;;;;;14.00;14.00;;;;;24.38;84.65;100910.34;5076804;28;45418;-74
2022/06/21 09:11:40;;;;;;;;;15.33;15.33;;;;;24.40;84.63;100911.16;5074986;27;46270;-75
2022/06/21 09:14:27;;;;;;;;;17.67;15.67;;;;;24.42;84.53;100913.78;5058701;28;45272;-75
2022/06/21 09:17:05;;;;;;;;;16.00;16.00;;;;;24.40;83.43;100911.16;5076272;28;45528;-74
2022/06/21 09:19:58;;;;;;;;;18.33;15.67;;;;;24.35;82.70;100923.06;5076402;28;45479;-76
2022/06/21 09:22:32;;;;;;;;;15.33;15.33;;;;;24.33;82.97;100923.13;5076081;28;47495;-74
2022/06/21 09:25:28;;;;;;;;;18.00;16.00;;;;;24.32;83.10;100932.16;5058069;28;45354;-73
2022/06/21 09:28:02;;;;;;;;;18.00;17.00;;;;;24.35;83.12;100923.97;5075765;28;45474;-72
2022/06/21 09:30:28;;;;;;;;;16.00;15.00;;;;;24.44;83.58;100922.66;5076531;28;45512;-72
2022/06/21 09:33:06;;;;;;;;;21.00;19.00;;;;;24.46;82.96;100921.69;5075748;27;48202;-72
2022/06/21 09:35:39;;;;;;;;;18.00;16.33;;;;;24.36;82.00;100919.47;5058355;28;45976;-71
2022/06/21 09:38:10;;;;;;;;;18.33;15.33;;;;;24.19;83.05;100923.75;5076652;28;46092;-74
2022/06/21 09:40:43;;;;;;;;;15.00;15.00;;;;;24.18;84.46;100924.72;5076620;28;45497;-73
2022/06/21 09:43:28;;;;;;;;;16.33;15.00;;;;;24.36;84.63;100925.72;5075811;28;46899;-73
2022/06/21 09:46:25;;;;;;;;;20.00;16.33;;;;;24.61;84.59;100919.19;5072198;28;45194;-73
2022/06/21 09:49:29;;;;;;;;;17.00;17.00;;;;;24.82;84.22;100911.00;5056602;27;45582;-73
2022/06/21 09:52:09;;;;;;;;;21.33;18.00;;;;;24.93;83.65;100909.59;5076296;28;45492;-73
2022/06/21 09:54:38;;;;;;;;;18.00;15.33;;;;;24.96;83.06;100910.34;5075575;28;46633;-73
2022/06/21 09:57:07;;;;;;;;;18.67;16.33;;;;;24.97;82.82;100914.78;5075309;27;45557;-73
2022/06/21 10:00:10;;;;;;;;;20.00;18.33;;;;;25.05;82.04;100912.59;5072902;28;45309;-73
2022/06/21 10:02:57;;;;;;;;;18.00;16.67;;;;;25.17;82.15;100907.59;5075461;28;45990;-73
2022/06/21 10:05:37;;;;;;;;;19.33;17.33;;;;;25.21;82.54;100907.38;5055228;28;46759;-73
2022/06/21 10:08:08;;;;;;;;;18.33;17.00;;;;;25.21;82.62;100901.09;5055164;28;45288;-73
2022/06/21 10:10:59;;;;;;;;;14.67;14.00;;;;;25.16;82.16;100901.31;5074830;27;45470;-74
2022/06/21 10:13:26;;;;;;;;;16.00;14.00;;;;;25.14;83.31;100895.13;5075708;27;45322;-73
2022/06/21 10:16:34;;;;;;;;;18.00;17.67;;;;;25.12;82.14;100894.31;5074712;27;47437;-73
2022/06/21 10:19:38;;;;;;;;;19.67;16.67;;;;;25.06;83.08;100889.19;5024288;27;45398;-73
2022/06/21 10:22:08;;;;;;;;;21.67;20.33;;;;;25.03;83.10;100883.91;5075438;27;45512;-73
2022/06/21 10:24:55;;;;;;;;;19.33;16.00;;;;;24.96;82.47;100883.31;5060737;27;45562;-73
2022/06/21 10:27:33;;;;;;;;;20.33;19.67;;;;;24.86;83.41;100870.34;5078665;27;47394;-73
2022/06/21 10:30:13;;;;;;;;;17.00;16.00;;;;;24.80;83.59;100871.50;5078725;27;45423;-73
2022/06/21 10:32:44;;;;;;;;;21.00;17.67;;;;;24.75;84.07;100869.00;5078299;27;45421;-73
2022/06/21 10:35:28;;;;;;;;;20.00;16.67;;;;;24.73;84.72;100864.66;5078222;27;45528;-73
2022/06/21 10:38:02;;;;;;;;;26.67;19.67;;;;;24.70;84.28;100859.38;5078949;27;45654;-73
2022/06/21 10:40:39;;;;;;;;;14.67;14.33;;;;;24.68;85.60;100858.59;5078282;27;45552;-73
2022/06/21 10:43:59;;;;;;;;;18.33;18.00;;;;;24.70;85.60;100854.84;5078666;27;45370;-73
2022/06/21 10:46:28;;;;;;;;;16.67;14.67;;;;;24.72;86.51;100849.41;4975776;28;45504;-73
2022/06/21 10:49:30;;;;;;;;;15.00;14.67;;;;;24.75;86.17;100836.59;4976708;28;46738;-73
2022/06/21 10:52:17;;;;;;;;;18.00;17.00;;;;;24.77;86.97;100842.84;5062445;27;45354;-73
2022/06/21 10:54:59;;;;;;;;;17.00;17.00;;;;;24.85;86.24;100850.56;5060257;28;45535;-73
2022/06/21 10:57:49;;;;;;;;;14.00;14.00;;;;;24.91;86.91;100836.75;5060158;28;45487;-74
2022/06/21 11:03:34;;;;;;;;;15.00;15.00;;;;;25.07;86.79;100834.22;5073630;27;45554;-73
2022/06/21 11:06:17;;;;;;;;;13.00;13.00;;;;;25.12;86.22;100831.28;5072897;27;45403;-73
2022/06/21 11:09:07;;;;;;;;;15.67;15.00;;;;;25.18;86.18;100830.97;5060421;28;46660;-73
2022/06/21 11:11:57;;;;;;;;;14.00;14.00;;;;;25.25;86.23;100836.00;5074260;28;47607;-73
2022/06/21 11:14:38;;;;;;;;;16.33;14.33;;;;;25.32;87.41;100828.47;5059677;28;45463;-73
2022/06/21 11:17:09;;;;;;;;;15.00;14.00;;;;;25.39;86.00;100832.59;5078598;27;45538;-73
2022/06/21 11:19:58;;;;;;;;;14.00;14.00;;;;;25.42;85.33;100832.47;5073057;28;45517;-73
2022/06/21 11:22:45;;;;;;;;;13.33;11.00;;;;;25.46;85.19;100827.75;5059106;28;47339;-73
2022/06/21 11:25:23;;;;;;;;;12.33;11.33;;;;;25.52;85.09;100822.94;5078083;28;45447;-73
2022/06/21 11:28:17;;;;;;;;;15.33;14.33;;;;;25.59;84.58;100820.78;5060298;28;45625;-73
2022/06/21 11:31:02;;;;;;;;;15.67;14.33;;;;;25.63;83.90;100826.91;5071936;27;45502;-73
2022/06/21 11:33:49;;;;;;;;;15.33;14.33;;;;;25.63;83.47;100818.78;5058702;28;46245;-73
2022/06/21 11:36:28;;;;;;;;;18.67;17.67;;;;;25.66;83.52;100824.03;5050976;28;45566;-72
2022/06/21 11:39:07;;;;;;;;;14.00;13.33;;;;;25.70;84.78;100821.09;5078216;28;45432;-73
2022/06/21 11:42:08;;;;;;;;;13.33;12.67;;;;;25.84;84.58;100823.13;5060155;28;45344;-72
2022/06/21 11:44:42;;;;;;;;;12.33;12.33;;;;;25.95;84.46;100819.84;5043295;28;47718;-73
2022/06/21 11:47:11;;;;;;;;;14.00;13.00;;;;;26.09;84.39;100817.25;5079407;27;45494;-72
2022/06/21 11:49:40;;;;;;;;;13.00;13.00;;;;;26.23;85.08;100813.81;5078173;27;45380;-73
2022/06/21 11:52:11;;;;;;;;;14.67;14.00;;;;;26.41;83.19;100818.22;5060169;28;45629;-72
2022/06/21 11:54:44;;;;;;;;;15.00;14.67;;;;;26.57;84.17;100815.56;5077649;28;46578;-72
2022/06/21 11:57:17;;;;;;;;;15.67;13.00;;;;;26.73;83.62;100812.88;5078017;28;45524;-73
2022/06/21 11:59:55;;;;;;;;;12.33;12.33;;;;;26.87;83.08;100816.53;5059528;28;45438;-72
2022/06/21 12:02:27;;;;;;;;;14.33;13.33;;;;;27.04;82.30;100814.69;5077116;28;45462;-72
2022/06/21 12:04:55;;;;;;;;;18.00;15.00;;;;;27.23;79.35;100807.28;5059055;28;46209;-72
2022/06/21 12:07:40;;;;;;;;;14.33;13.00;;;;;27.31;80.14;100817.66;5057097;28;45379;-73
2022/06/21 12:10:15;;;;;;;;;19.00;14.33;;;;;27.22;79.23;100823.63;5056817;28;45313;-73
2022/06/21 12:13:05;;;;;;;;;11.67;11.67;;;;;27.12;79.65;100817.88;5057069;28;45542;-72
2022/06/21 12:15:52;;;;;;;;;13.67;13.33;;;;;27.14;80.05;100821.38;5056261;28;47477;-73
2022/06/21 12:18:21;;;;;;;;;13.00;12.00;;;;;27.26;79.92;100806.22;5056866;28;46211;-73